createdAt,value
2023-02-23T00:00:53.005Z,4.64
2023-02-23T00:03:57.759Z,4.69
2023-02-23T00:07:00.518Z,4.67
2023-02-23T00:10:03.864Z,4.72
2023-02-23T00:13:06.541Z,4.69
2023-02-23T00:16:14.751Z,4.57
2023-02-23T00:19:19.423Z,4.42
2023-02-23T00:22:25.518Z,4.45
2023-02-23T00:25:31.143Z,4.37
2023-02-23T00:28:34.182Z,4.08
2023-02-23T00:31:38.764Z,3.74
2023-02-23T00:34:41.951Z,3.78
2023-02-23T00:37:48.987Z,3.81
2023-02-23T00:40:51.961Z,3.78
2023-02-23T00:43:57.678Z,3.99
2023-02-23T00:47:01.327Z,3.74
2023-02-23T00:50:05.145Z,3.92
2023-02-23T00:53:09.966Z,4.01
2023-02-23T00:56:15.999Z,4.23
2023-02-23T00:59:19.720Z,4.12
2023-02-23T01:02:22.434Z,4.03
2023-02-23T01:05:25.503Z,4.09
2023-02-23T01:08:30.291Z,4.20
2023-02-23T01:11:41.665Z,4.11
2023-02-23T01:14:44.289Z,4.23
2023-02-23T01:17:47.668Z,4.30
2023-02-23T01:20:51.620Z,4.40
2023-02-23T01:23:55.925Z,4.46
2023-02-23T01:26:58.589Z,4.64
2023-02-23T01:30:02.238Z,4.72
2023-02-23T01:33:05.980Z,4.65
2023-02-23T01:36:09.082Z,4.57
2023-02-23T01:39:15.057Z,4.76
2023-02-23T01:42:17.946Z,4.72
2023-02-23T01:45:34.800Z,4.90
2023-02-23T01:48:40.513Z,4.83
2023-02-23T01:51:49.320Z,5.02
2023-02-23T01:54:55.805Z,5.29
2023-02-23T01:58:08.034Z,5.32
2023-02-23T02:01:11.893Z,5.20
2023-02-23T02:04:16.913Z,5.18
2023-02-23T02:07:28.986Z,5.10
2023-02-23T02:10:44.758Z,5.09
2023-02-23T02:13:47.399Z,5.29
2023-02-23T02:16:50.207Z,5.21
2023-02-23T02:19:53.472Z,5.24
2023-02-23T02:23:32.007Z,5.26
2023-02-23T02:26:45.474Z,5.21
2023-02-23T02:30:26.891Z,5.33
2023-02-23T02:33:38.058Z,5.34
2023-02-23T02:37:08.576Z,5.25
2023-02-23T02:40:28.577Z,5.26
2023-02-23T02:43:43.552Z,5.43
2023-02-23T02:46:57.514Z,5.46
2023-02-23T02:50:13.551Z,5.17
2023-02-23T02:53:45.694Z,5.52
2023-02-23T02:56:52.143Z,5.54
2023-02-23T03:00:16.563Z,5.53
2023-02-23T03:03:58.558Z,5.61
2023-02-23T03:07:25.537Z,5.58
2023-02-23T03:11:01.376Z,5.79
2023-02-23T03:14:31.355Z,5.70
2023-02-23T03:18:05.242Z,5.84
2023-02-23T03:21:35.692Z,5.80
2023-02-23T03:25:13.803Z,5.60
2023-02-23T03:28:39.534Z,5.65
2023-02-23T03:32:32.532Z,5.59
2023-02-23T03:36:12.762Z,5.71
2023-02-23T03:39:53.997Z,5.79
2023-02-23T03:43:19.818Z,5.66
2023-02-23T03:46:45.809Z,5.85
2023-02-23T03:50:09.563Z,5.77
2023-02-23T03:53:36.396Z,5.80
2023-02-23T03:57:01.890Z,5.58
2023-02-23T04:00:27.949Z,5.72
2023-02-23T04:03:52.566Z,5.62
2023-02-23T04:07:16.895Z,5.54
2023-02-23T04:10:39.767Z,5.48
2023-02-23T04:13:45.386Z,5.38
2023-02-23T04:16:48.874Z,5.62
2023-02-23T04:19:54.365Z,5.53
2023-02-23T04:22:57.594Z,5.75
2023-02-23T04:26:00.195Z,5.72
2023-02-23T04:29:03.369Z,5.52
2023-02-23T04:32:07.360Z,5.66
2023-02-23T04:35:10.424Z,5.46
2023-02-23T04:38:13.046Z,5.35
2023-02-23T04:41:15.931Z,5.45
2023-02-23T04:44:19.058Z,5.46
2023-02-23T04:47:22.714Z,5.59
2023-02-23T04:50:25.560Z,5.46
2023-02-23T04:53:28.598Z,5.58
2023-02-23T04:56:31.702Z,5.57
2023-02-23T04:59:35.155Z,5.68
2023-02-23T05:02:37.923Z,5.63
2023-02-23T05:05:40.834Z,5.59
2023-02-23T05:08:43.994Z,5.46
2023-02-23T05:11:47.087Z,5.50
2023-02-23T05:14:50.418Z,5.40
2023-02-23T05:17:55.819Z,5.23
2023-02-23T05:21:07.026Z,5.38
2023-02-23T05:24:10.318Z,5.69
2023-02-23T05:27:16.084Z,5.70
2023-02-23T05:30:20.204Z,5.74
2023-02-23T05:33:22.972Z,5.83
2023-02-23T05:36:26.374Z,5.91
2023-02-23T05:39:29.303Z,5.90
2023-02-23T05:42:32.464Z,5.96
2023-02-23T05:45:35.041Z,6.08
2023-02-23T05:48:38.636Z,5.96
2023-02-23T05:51:44.316Z,5.89
2023-02-23T05:54:47.285Z,6.02
2023-02-23T05:57:50.839Z,5.97
2023-02-23T06:00:54.151Z,5.91
2023-02-23T06:03:57.366Z,6.00
2023-02-23T06:07:00.320Z,6.17
2023-02-23T06:10:04.926Z,6.15
2023-02-23T06:13:07.621Z,5.97
2023-02-23T06:16:10.702Z,6.35
2023-02-23T06:19:13.300Z,6.56
2023-02-23T06:22:17.847Z,6.36
2023-02-23T06:25:20.506Z,6.36
2023-02-23T06:28:23.741Z,6.54
2023-02-23T06:31:26.472Z,6.53
2023-02-23T06:34:29.711Z,6.35
2023-02-23T06:37:34.826Z,6.59
2023-02-23T06:40:39.369Z,6.50
2023-02-23T06:43:42.146Z,6.46
2023-02-23T06:46:45.476Z,6.58
2023-02-23T06:49:48.199Z,6.75
2023-02-23T06:52:51.674Z,6.97
2023-02-23T06:55:54.463Z,6.81
2023-02-23T06:58:58.740Z,6.95
2023-02-23T07:02:01.855Z,7.10
2023-02-23T07:05:05.298Z,7.29
2023-02-23T07:08:08.165Z,7.35
2023-02-23T07:11:15.672Z,7.30
2023-02-23T07:14:26.368Z,7.41
2023-02-23T07:17:29.946Z,7.51
2023-02-23T07:20:34.597Z,7.60
2023-02-23T07:23:37.810Z,7.70
2023-02-23T07:26:43.719Z,8.09
2023-02-23T07:29:46.584Z,7.85
2023-02-23T07:32:49.290Z,8.03
2023-02-23T07:35:52.458Z,8.15
2023-02-23T07:38:55.707Z,7.99
2023-02-23T07:41:58.823Z,8.24
2023-02-23T07:45:01.844Z,8.83
2023-02-23T07:48:05.725Z,8.53
2023-02-23T07:51:11.849Z,8.64
2023-02-23T07:54:15.787Z,8.81
2023-02-23T07:57:20.019Z,9.04
2023-02-23T08:00:25.194Z,9.18
2023-02-23T08:03:28.195Z,9.57
2023-02-23T08:06:31.359Z,9.83
2023-02-23T08:09:35.560Z,10.00
2023-02-23T08:12:38.258Z,9.69
2023-02-23T08:15:41.394Z,9.68
2023-02-23T08:18:46.252Z,9.91
2023-02-23T08:21:50.841Z,9.75
2023-02-23T08:24:53.486Z,9.80
2023-02-23T08:27:56.495Z,9.91
2023-02-23T08:30:59.641Z,10.06
2023-02-23T08:34:03.081Z,10.27
2023-02-23T08:37:05.673Z,10.11
2023-02-23T08:40:10.256Z,10.63
2023-02-23T08:43:13.090Z,10.47
2023-02-23T08:46:18.802Z,10.83
2023-02-23T08:49:25.838Z,10.86
2023-02-23T08:52:29.122Z,10.67
2023-02-23T08:55:35.639Z,11.18
2023-02-23T08:58:39.222Z,11.63
2023-02-23T09:01:43.211Z,11.85
2023-02-23T09:04:46.465Z,11.54
2023-02-23T09:07:49.348Z,11.36
2023-02-23T09:10:53.741Z,11.60
2023-02-23T09:13:56.416Z,11.52
2023-02-23T09:16:59.423Z,11.90
2023-02-23T09:20:02.398Z,12.18
2023-02-23T09:23:05.462Z,12.07
2023-02-23T09:26:08.983Z,12.13
2023-02-23T09:29:12.005Z,12.41
2023-02-23T09:32:14.852Z,12.31
2023-02-23T09:35:19.840Z,12.31
2023-02-23T09:38:22.660Z,12.41
2023-02-23T09:41:25.551Z,12.21
2023-02-23T09:44:56.250Z,12.71
2023-02-23T09:48:14.454Z,12.38
2023-02-23T09:51:21.224Z,12.95
2023-02-23T09:54:27.956Z,12.98
2023-02-23T09:57:39.613Z,13.07
2023-02-23T10:00:51.571Z,13.44
2023-02-23T10:03:57.971Z,13.51
2023-02-23T10:07:09.879Z,13.50
2023-02-23T10:10:30.700Z,13.56
2023-02-23T10:13:48.123Z,13.51
2023-02-23T10:17:23.985Z,13.30
2023-02-23T10:20:45.855Z,13.57
2023-02-23T10:24:20.380Z,13.77
2023-02-23T10:27:29.335Z,14.02
2023-02-23T10:30:35.682Z,13.39
2023-02-23T10:33:41.922Z,13.82
2023-02-23T10:36:53.675Z,13.81
2023-02-23T10:39:56.577Z,13.49
2023-02-23T10:43:02.851Z,13.48
2023-02-23T10:46:07.310Z,13.56
2023-02-23T10:49:22.552Z,13.79
2023-02-23T10:52:42.739Z,13.45
2023-02-23T10:55:47.418Z,13.80
2023-02-23T10:58:51.518Z,13.98
2023-02-23T11:02:02.009Z,13.37
2023-02-23T11:05:06.596Z,13.34
2023-02-23T11:08:24.960Z,13.32
2023-02-23T11:11:29.191Z,13.72
2023-02-23T11:14:33.812Z,13.85
2023-02-23T11:17:38.420Z,13.70
2023-02-23T11:20:42.304Z,13.29
2023-02-23T11:23:45.185Z,13.74
2023-02-23T11:26:51.328Z,13.61
2023-02-23T11:29:57.730Z,13.62
2023-02-23T11:33:10.942Z,13.77
2023-02-23T11:36:15.900Z,13.74
2023-02-23T11:39:23.647Z,13.93
2023-02-23T11:42:33.381Z,13.99
2023-02-23T11:45:58.344Z,13.89
2023-02-23T11:49:05.459Z,13.47
2023-02-23T11:52:16.053Z,13.32
2023-02-23T11:55:20.147Z,13.38
2023-02-23T11:59:08.465Z,13.25
2023-02-23T12:02:32.892Z,13.21
2023-02-23T12:05:35.891Z,13.20
2023-02-23T12:08:52.444Z,13.36
2023-02-23T12:12:03.108Z,13.48
2023-02-23T12:15:25.000Z,13.65
2023-02-23T12:18:54.615Z,13.65
2023-02-23T12:22:00.436Z,13.59
2023-02-23T12:25:37.179Z,13.69
2023-02-23T12:28:48.100Z,13.73
2023-02-23T12:32:05.882Z,13.83
2023-02-23T12:35:33.822Z,14.10
2023-02-23T12:38:51.890Z,14.31
2023-02-23T12:42:32.042Z,14.41
2023-02-23T12:45:43.095Z,14.30
2023-02-23T12:49:08.677Z,14.43
2023-02-23T12:52:24.988Z,14.57
2023-02-23T12:55:49.025Z,14.47
2023-02-23T12:59:17.059Z,14.54
2023-02-23T13:02:44.666Z,14.20
2023-02-23T13:05:50.563Z,13.78
2023-02-23T13:09:16.126Z,13.66
2023-02-23T13:12:29.582Z,13.89
2023-02-23T13:15:44.744Z,14.06
2023-02-23T13:18:58.085Z,13.82
2023-02-23T13:22:15.892Z,14.05
2023-02-23T13:25:28.143Z,13.82
2023-02-23T13:28:45.521Z,13.97
2023-02-23T13:31:49.869Z,14.02
2023-02-23T13:35:01.063Z,13.82
2023-02-23T13:38:13.188Z,13.97
2023-02-23T13:41:33.888Z,13.54
2023-02-23T13:44:54.012Z,14.00
2023-02-23T13:48:17.195Z,13.88
2023-02-23T13:51:32.664Z,13.78
2023-02-23T13:54:36.667Z,13.66
2023-02-23T13:57:43.856Z,13.84
2023-02-23T14:00:55.074Z,13.80
2023-02-23T14:04:01.876Z,13.81
2023-02-23T14:07:18.767Z,13.77
2023-02-23T14:10:25.881Z,13.57
2023-02-23T14:13:40.263Z,13.47
2023-02-23T14:16:46.533Z,13.26
2023-02-23T14:20:13.353Z,13.35
2023-02-23T14:23:20.740Z,12.94
2023-02-23T14:26:29.066Z,12.98
2023-02-23T14:29:40.651Z,13.04
2023-02-23T14:32:48.449Z,13.02
2023-02-23T14:35:51.466Z,12.92
2023-02-23T14:38:57.085Z,13.03
2023-02-23T14:42:00.375Z,13.12
2023-02-23T14:45:13.389Z,13.08
2023-02-23T14:48:18.388Z,13.16
2023-02-23T14:51:26.069Z,13.14
2023-02-23T14:54:47.744Z,13.00
2023-02-23T14:57:52.547Z,12.97
2023-02-23T15:00:55.724Z,12.95
2023-02-23T15:04:10.427Z,12.98
2023-02-23T15:07:24.203Z,12.84
2023-02-23T15:10:50.654Z,12.91
2023-02-23T15:13:54.993Z,13.04
2023-02-23T15:16:57.760Z,12.78
2023-02-23T15:20:16.630Z,12.72
2023-02-23T15:23:21.389Z,12.78
2023-02-23T15:26:36.413Z,12.60
2023-02-23T15:29:39.012Z,12.42
2023-02-23T15:32:42.603Z,12.53
2023-02-23T15:35:55.415Z,12.47
2023-02-23T15:39:03.748Z,12.40
2023-02-23T15:42:15.553Z,12.24
2023-02-23T15:45:30.456Z,12.14
2023-02-23T15:48:48.713Z,12.04
2023-02-23T15:51:57.486Z,11.91
2023-02-23T15:55:06.455Z,11.92
2023-02-23T15:58:21.920Z,11.80
2023-02-23T16:01:30.434Z,11.60
2023-02-23T16:04:42.464Z,11.47
2023-02-23T16:07:45.260Z,11.40
2023-02-23T16:10:50.231Z,11.33
2023-02-23T16:13:54.960Z,11.17
2023-02-23T16:17:10.870Z,11.01
2023-02-23T16:20:29.104Z,10.87
2023-02-23T16:23:41.560Z,10.81
2023-02-23T16:26:57.199Z,10.68
2023-02-23T16:30:25.652Z,10.67
2023-02-23T16:33:48.664Z,10.49
2023-02-23T16:36:57.751Z,10.36
2023-02-23T16:40:01.509Z,10.29
2023-02-23T16:43:05.312Z,10.15
2023-02-23T16:46:08.216Z,9.99
2023-02-23T16:49:12.451Z,9.86
2023-02-23T16:52:25.807Z,9.74
2023-02-23T16:55:39.293Z,9.70
2023-02-23T16:58:44.513Z,9.67
2023-02-23T17:01:50.176Z,9.56
2023-02-23T17:04:58.995Z,9.49
2023-02-23T17:08:02.089Z,9.43
2023-02-23T17:11:06.617Z,9.29
2023-02-23T17:14:19.521Z,9.15
2023-02-23T17:17:22.859Z,9.10
2023-02-23T17:20:28.102Z,9.06
2023-02-23T17:23:39.184Z,8.86
2023-02-23T17:26:42.773Z,8.74
2023-02-23T17:29:45.742Z,8.54
2023-02-23T17:32:49.904Z,8.48
2023-02-23T17:35:52.960Z,8.34
2023-02-23T17:38:59.269Z,8.28
2023-02-23T17:42:02.361Z,8.18
2023-02-23T17:45:07.139Z,8.08
2023-02-23T17:48:10.137Z,8.16
2023-02-23T17:51:16.398Z,7.92
2023-02-23T17:54:20.780Z,7.96
2023-02-23T17:57:25.272Z,7.97
2023-02-23T18:00:28.819Z,7.96
2023-02-23T18:03:34.659Z,7.83
2023-02-23T18:06:37.590Z,7.80
2023-02-23T18:09:40.768Z,7.67
2023-02-23T18:12:43.618Z,7.60
2023-02-23T18:15:57.919Z,7.53
2023-02-23T18:19:00.963Z,7.46
2023-02-23T18:22:11.768Z,7.16
2023-02-23T18:25:28.319Z,7.17
2023-02-23T18:28:32.622Z,7.04
2023-02-23T18:31:36.333Z,6.90
2023-02-23T18:34:39.567Z,6.87
2023-02-23T18:37:42.537Z,6.73
2023-02-23T18:40:45.823Z,6.60
2023-02-23T18:43:49.732Z,6.50
2023-02-23T18:46:55.836Z,6.46
2023-02-23T18:50:01.757Z,6.48
2023-02-23T18:53:06.233Z,6.42
2023-02-23T18:56:16.761Z,6.46
2023-02-23T18:59:20.054Z,6.66
2023-02-23T19:02:25.326Z,6.57
2023-02-23T19:05:28.629Z,6.63
2023-02-23T19:08:32.427Z,6.62
2023-02-23T19:11:37.352Z,6.77
2023-02-23T19:14:49.281Z,6.76
2023-02-23T19:18:14.794Z,6.66
2023-02-23T19:21:22.982Z,6.50
2023-02-23T19:24:29.994Z,6.64
2023-02-23T19:27:34.561Z,6.68
2023-02-23T19:30:44.208Z,6.70
2023-02-23T19:33:49.921Z,6.37
2023-02-23T19:36:55.174Z,6.31
2023-02-23T19:39:58.111Z,6.39
2023-02-23T19:43:02.427Z,6.39
2023-02-23T19:46:07.562Z,6.63
2023-02-23T19:49:13.076Z,6.31
2023-02-23T19:52:17.095Z,6.33
2023-02-23T19:55:21.329Z,6.63
2023-02-23T19:58:27.215Z,6.56
2023-02-23T20:01:31.779Z,6.89
2023-02-23T20:04:35.005Z,6.93
2023-02-23T20:07:38.341Z,7.04
2023-02-23T20:10:42.652Z,7.10
2023-02-23T20:13:49.305Z,6.97
2023-02-23T20:16:52.660Z,7.05
2023-02-23T20:19:55.382Z,7.22
2023-02-23T20:22:58.839Z,7.24
2023-02-23T20:26:09.036Z,7.42
2023-02-23T20:29:19.334Z,7.53
2023-02-23T20:32:24.739Z,7.48
2023-02-23T20:35:32.391Z,7.56
2023-02-23T20:38:37.459Z,7.64
2023-02-23T20:41:45.974Z,7.70
2023-02-23T20:44:48.878Z,7.81
2023-02-23T20:47:53.639Z,7.80
2023-02-23T20:50:57.490Z,7.81
2023-02-23T20:54:00.978Z,7.91
2023-02-23T20:57:09.561Z,8.08
2023-02-23T21:00:20.556Z,8.22
2023-02-23T21:03:25.006Z,8.36
2023-02-23T21:06:32.321Z,8.53
2023-02-23T21:09:40.112Z,8.70
2023-02-23T21:12:43.764Z,8.74
2023-02-23T21:15:56.681Z,8.70
2023-02-23T21:19:06.527Z,8.68
2023-02-23T21:22:09.559Z,8.75
2023-02-23T21:25:12.895Z,8.80
2023-02-23T21:28:15.781Z,8.80
2023-02-23T21:31:19.473Z,8.78
2023-02-23T21:34:22.553Z,8.80
2023-02-23T21:37:25.434Z,8.75
2023-02-23T21:40:28.449Z,8.77
2023-02-23T21:43:34.783Z,8.71
2023-02-23T21:46:37.469Z,8.68
2023-02-23T21:49:41.044Z,8.62
2023-02-23T21:52:46.968Z,8.61
2023-02-23T21:55:49.993Z,8.67
2023-02-23T21:58:57.655Z,8.59
2023-02-23T22:02:00.555Z,8.61
2023-02-23T22:05:04.448Z,8.59
2023-02-23T22:08:07.265Z,8.50
2023-02-23T22:11:17.412Z,8.51
2023-02-23T22:14:22.363Z,8.49
2023-02-23T22:17:25.911Z,8.47
2023-02-23T22:20:28.939Z,8.40
2023-02-23T22:23:32.044Z,8.34
2023-02-23T22:26:41.832Z,8.31
2023-02-23T22:29:44.767Z,8.24
2023-02-23T22:32:47.785Z,8.22
2023-02-23T22:35:51.168Z,8.17
2023-02-23T22:38:58.442Z,8.16
2023-02-23T22:42:09.312Z,8.08
2023-02-23T22:45:12.143Z,8.08
2023-02-23T22:48:23.636Z,7.96
2023-02-23T22:51:26.311Z,8.04
2023-02-23T22:54:31.500Z,7.99
2023-02-23T22:57:34.131Z,8.02
2023-02-23T23:00:37.415Z,8.05
2023-02-23T23:03:45.990Z,8.07
2023-02-23T23:06:48.838Z,8.16
2023-02-23T23:09:52.323Z,8.15
2023-02-23T23:12:57.145Z,8.25
2023-02-23T23:16:07.779Z,8.16
2023-02-23T23:19:12.415Z,8.32
2023-02-23T23:22:17.518Z,8.39
2023-02-23T23:25:23.143Z,8.40
2023-02-23T23:28:27.363Z,8.38
2023-02-23T23:31:32.366Z,8.50
2023-02-23T23:34:35.125Z,8.53
2023-02-23T23:37:39.892Z,8.62
2023-02-23T23:40:47.003Z,8.48
2023-02-23T23:43:54.699Z,8.46
2023-02-23T23:46:58.150Z,8.46
2023-02-23T23:50:02.778Z,8.46
2023-02-23T23:53:05.647Z,8.47
2023-02-23T23:56:09.451Z,8.45
2023-02-23T23:59:18.028Z,8.42
